createdAt,value
2019-05-17T00:00:02.071Z,84.95
2019-05-17T00:01:01.911Z,85.36
2019-05-17T00:02:01.872Z,85.16
2019-05-17T00:03:01.897Z,85.26
2019-05-17T00:04:01.887Z,85.06
2019-05-17T00:05:01.836Z,85.77
2019-05-17T00:06:01.822Z,85.57
2019-05-17T00:07:01.860Z,86.08
2019-05-17T00:08:01.800Z,85.57
2019-05-17T00:09:01.834Z,84.85
2019-05-17T00:10:01.818Z,84.65
2019-05-17T00:11:01.811Z,84.65
2019-05-17T00:12:01.752Z,85.26
2019-05-17T00:13:01.742Z,84.85
2019-05-17T00:14:01.731Z,84.44
2019-05-17T00:15:01.722Z,84.85
2019-05-17T00:16:01.749Z,84.34
2019-05-17T00:17:01.700Z,85.47
2019-05-17T00:18:01.684Z,85.16
2019-05-17T00:19:01.677Z,85.88
2019-05-17T00:20:01.667Z,85.97
2019-05-17T00:21:01.676Z,86.49
2019-05-17T00:22:01.684Z,86.49
2019-05-17T00:23:01.633Z,86.18
2019-05-17T00:24:01.616Z,85.97
2019-05-17T00:25:01.607Z,85.77
2019-05-17T00:26:01.638Z,85.88
2019-05-17T00:27:01.589Z,86.49
2019-05-17T00:28:01.572Z,85.97
2019-05-17T00:29:01.560Z,86.18
2019-05-17T00:30:01.552Z,85.61
2019-05-17T00:31:01.541Z,86.29
2019-05-17T00:32:01.569Z,86.18
2019-05-17T00:33:01.564Z,86.32
2019-05-17T00:34:01.505Z,86.32
2019-05-17T00:35:01.492Z,85.50
2019-05-17T00:36:01.488Z,87.24
2019-05-17T00:37:01.472Z,87.04
2019-05-17T00:38:01.458Z,87.29
2019-05-17T00:39:01.488Z,87.04
2019-05-17T00:40:01.438Z,87.85
2019-05-17T00:41:01.427Z,87.45
2019-05-17T00:42:01.456Z,87.76
2019-05-17T00:43:01.407Z,88.06
2019-05-17T00:44:01.436Z,88.06
2019-05-17T00:45:01.383Z,87.96
2019-05-17T00:46:01.372Z,88.06
2019-05-17T00:47:01.358Z,87.85
2019-05-17T00:48:01.347Z,87.65
2019-05-17T00:49:01.335Z,87.85
2019-05-17T00:50:01.367Z,87.55
2019-05-17T00:51:02.413Z,87.55
2019-05-17T00:52:01.299Z,87.85
2019-05-17T00:53:01.299Z,87.55
2019-05-17T00:54:01.320Z,87.85
2019-05-17T00:55:01.309Z,87.10
2019-05-17T00:56:01.302Z,87.92
2019-05-17T00:57:01.286Z,87.41
2019-05-17T00:58:01.232Z,87.71
2019-05-17T00:59:01.274Z,88.06
2019-05-17T01:00:01.250Z,86.94
2019-05-17T01:01:01.207Z,87.00
2019-05-17T01:02:01.190Z,86.90
2019-05-17T01:03:01.215Z,85.77
2019-05-17T01:04:01.164Z,85.06
2019-05-17T01:05:01.152Z,85.81
2019-05-17T01:06:01.142Z,86.53
2019-05-17T01:07:01.129Z,86.36
2019-05-17T01:08:01.122Z,86.88
2019-05-17T01:09:04.093Z,87.18
2019-05-17T01:10:01.097Z,88.10
2019-05-17T01:11:01.088Z,87.79
2019-05-17T01:12:01.073Z,88.20
2019-05-17T01:13:01.067Z,88.71
2019-05-17T01:14:01.098Z,88.56
2019-05-17T01:15:01.042Z,88.41
2019-05-17T01:16:01.034Z,87.70
2019-05-17T01:17:01.021Z,88.31
2019-05-17T01:18:01.006Z,88.10
2019-05-17T01:19:01.044Z,88.31
2019-05-17T01:20:00.987Z,87.70
2019-05-17T01:21:00.974Z,87.70
2019-05-17T01:22:01.011Z,87.79
2019-05-17T01:23:00.954Z,87.90
2019-05-17T01:24:00.937Z,87.70
2019-05-17T01:25:00.935Z,88.10
2019-05-17T01:26:00.935Z,87.59
2019-05-17T01:27:00.952Z,87.70
2019-05-17T01:28:00.894Z,87.29
2019-05-17T01:29:00.927Z,87.22
2019-05-17T01:30:00.870Z,88.14
2019-05-17T01:31:00.903Z,88.04
2019-05-17T01:32:00.849Z,88.35
2019-05-17T01:33:00.886Z,88.35
2019-05-17T01:34:00.830Z,89.98
2019-05-17T01:35:00.821Z,89.27
2019-05-17T01:36:00.802Z,88.82
2019-05-17T01:37:00.798Z,88.31
2019-05-17T01:38:00.785Z,87.79
2019-05-17T01:39:14.121Z,87.90
2019-05-17T01:40:01.803Z,87.90
2019-05-17T01:41:00.755Z,87.90
2019-05-17T01:42:00.737Z,87.70
2019-05-17T01:43:00.724Z,88.41
2019-05-17T01:44:00.717Z,88.20
2019-05-17T01:45:00.747Z,87.59
2019-05-17T01:46:00.693Z,88.20
2019-05-17T01:47:00.720Z,88.00
2019-05-17T01:48:00.670Z,89.33
2019-05-17T01:49:00.660Z,88.56
2019-05-17T01:50:00.648Z,88.86
2019-05-17T01:51:00.683Z,88.45
2019-05-17T01:52:00.623Z,89.37
2019-05-17T01:53:00.655Z,88.56
2019-05-17T01:54:00.633Z,89.17
2019-05-17T01:55:00.637Z,89.12
2019-05-17T01:56:00.580Z,88.86
2019-05-17T01:57:00.586Z,88.35
2019-05-17T01:58:00.554Z,88.45
2019-05-17T01:59:00.596Z,89.06
2019-05-17T02:00:00.554Z,88.96
2019-05-17T02:01:00.565Z,88.24
2019-05-17T02:02:00.569Z,88.45
2019-05-17T02:03:00.503Z,88.76
2019-05-17T02:04:00.532Z,89.17
2019-05-17T02:05:00.487Z,88.65
2019-05-17T02:06:00.472Z,89.06
2019-05-17T02:07:00.481Z,89.37
2019-05-17T02:08:00.455Z,88.56
2019-05-17T02:09:00.477Z,88.65
2019-05-17T02:10:00.439Z,88.96
2019-05-17T02:11:00.414Z,88.96
2019-05-17T02:12:00.410Z,88.76
2019-05-17T02:13:00.390Z,89.27
2019-05-17T02:14:00.379Z,88.45
2019-05-17T02:15:00.408Z,88.56
2019-05-17T02:16:00.355Z,87.90
2019-05-17T02:17:00.383Z,87.94
2019-05-17T02:18:00.377Z,87.59
2019-05-17T02:19:00.323Z,87.59
2019-05-17T02:20:00.311Z,87.73
2019-05-17T02:21:00.300Z,87.94
2019-05-17T02:22:00.336Z,88.76
2019-05-17T02:23:00.289Z,88.86
2019-05-17T02:24:00.313Z,88.56
2019-05-17T02:25:00.256Z,87.59
2019-05-17T02:26:00.244Z,87.90
2019-05-17T02:27:00.233Z,87.08
2019-05-17T02:28:01.527Z,87.18
2019-05-17T02:29:01.401Z,87.08
2019-05-17T02:30:02.641Z,88.00
2019-05-17T02:31:03.246Z,87.84
2019-05-17T02:32:03.542Z,87.59
2019-05-17T02:33:03.459Z,87.84
2019-05-17T02:34:02.814Z,87.79
2019-05-17T02:35:03.141Z,87.79
2019-05-17T02:36:02.832Z,87.08
2019-05-17T02:37:02.884Z,87.53
2019-05-17T02:38:02.837Z,87.79
2019-05-17T02:39:03.386Z,87.94
2019-05-17T02:40:04.634Z,87.79
2019-05-17T02:41:03.245Z,88.35
2019-05-17T02:42:02.659Z,88.56
2019-05-17T02:43:03.154Z,88.96
2019-05-17T02:44:02.326Z,88.56
2019-05-17T02:45:03.273Z,88.86
2019-05-17T02:46:03.265Z,89.17
2019-05-17T02:47:02.889Z,89.37
2019-05-17T02:48:03.275Z,88.96
2019-05-17T02:49:02.769Z,89.37
2019-05-17T02:49:59.979Z,89.27
2019-05-17T02:51:03.151Z,89.06
2019-05-17T02:52:02.931Z,89.17
2019-05-17T02:52:59.943Z,89.89
2019-05-17T02:54:03.826Z,89.68
2019-05-17T02:55:03.660Z,88.96
2019-05-17T02:56:02.978Z,89.06
2019-05-17T02:57:02.807Z,88.96
2019-05-17T02:58:02.757Z,89.06
2019-05-17T02:59:03.300Z,88.96
2019-05-17T03:00:04.046Z,88.86
2019-05-17T03:01:03.294Z,89.47
2019-05-17T03:02:03.189Z,89.00
2019-05-17T03:03:03.029Z,90.09
2019-05-17T03:03:59.823Z,89.78
2019-05-17T03:05:03.562Z,89.47
2019-05-17T03:06:02.680Z,89.58
2019-05-17T03:06:59.792Z,89.42
2019-05-17T03:08:03.597Z,90.03
2019-05-17T03:09:03.117Z,90.13
2019-05-17T03:10:16.509Z,89.98
2019-05-17T03:11:03.229Z,90.19
2019-05-17T03:12:03.012Z,90.44
2019-05-17T03:12:59.721Z,89.58
2019-05-17T03:13:59.757Z,90.50
2019-05-17T03:14:59.755Z,89.98
2019-05-17T03:16:03.048Z,89.37
2019-05-17T03:17:02.895Z,88.96
2019-05-17T03:18:03.251Z,88.76
2019-05-17T03:18:59.650Z,89.47
2019-05-17T03:19:59.642Z,89.11
2019-05-17T03:21:03.358Z,89.83
2019-05-17T03:22:04.203Z,90.23
2019-05-17T03:23:03.917Z,89.89
2019-05-17T03:24:02.861Z,89.92
2019-05-17T03:25:02.897Z,89.68
2019-05-17T03:26:03.186Z,90.30
2019-05-17T03:27:02.832Z,89.47
2019-05-17T03:28:02.562Z,89.17
2019-05-17T03:29:02.886Z,89.17
2019-05-17T03:30:03.726Z,89.06
2019-05-17T03:30:59.563Z,89.68
2019-05-17T03:32:02.457Z,89.47
2019-05-17T03:33:06.240Z,88.96
2019-05-17T03:34:05.691Z,89.17
2019-05-17T03:35:06.120Z,89.27
2019-05-17T03:36:05.389Z,89.37
2019-05-17T03:37:05.581Z,89.37
2019-05-17T03:38:03.519Z,89.37
2019-05-17T03:39:02.871Z,88.96
2019-05-17T03:40:02.714Z,88.76
2019-05-17T03:41:13.882Z,88.65
2019-05-17T03:42:02.626Z,89.17
2019-05-17T03:43:02.539Z,88.76
2019-05-17T03:44:02.909Z,88.45
2019-05-17T03:45:02.623Z,88.65
2019-05-17T03:46:02.454Z,89.27
2019-05-17T03:47:02.173Z,88.24
2019-05-17T03:47:59.329Z,88.35
2019-05-17T03:48:59.318Z,87.73
2019-05-17T03:50:02.788Z,88.04
2019-05-17T03:51:02.349Z,87.53
2019-05-17T03:52:02.480Z,88.04
2019-05-17T03:53:02.179Z,87.43
2019-05-17T03:54:02.081Z,88.24
2019-05-17T03:54:59.242Z,88.24
2019-05-17T03:56:02.659Z,88.31
2019-05-17T03:57:02.647Z,88.35
2019-05-17T03:58:02.633Z,88.00
2019-05-17T03:58:59.243Z,88.62
2019-05-17T03:59:59.192Z,88.00
2019-05-17T04:00:59.177Z,87.70
2019-05-17T04:01:59.169Z,87.59
2019-05-17T04:02:59.195Z,87.59
2019-05-17T04:04:02.555Z,87.70
2019-05-17T04:04:59.131Z,88.31
2019-05-17T04:05:59.136Z,88.17
2019-05-17T04:06:59.118Z,88.10
2019-05-17T04:07:59.152Z,88.26
2019-05-17T04:08:59.114Z,88.17
2019-05-17T04:09:59.077Z,88.17
2019-05-17T04:11:16.186Z,87.76
2019-05-17T04:12:02.742Z,87.24
2019-05-17T04:12:59.094Z,86.83
2019-05-17T04:13:59.066Z,86.63
2019-05-17T04:15:02.889Z,87.45
2019-05-17T04:15:59.013Z,87.70
2019-05-17T04:16:59.032Z,87.76
2019-05-17T04:17:58.987Z,87.49
2019-05-17T04:18:58.978Z,87.04
2019-05-17T04:20:02.590Z,87.45
2019-05-17T04:20:58.952Z,86.94
2019-05-17T04:21:58.941Z,86.94
2019-05-17T04:22:58.975Z,86.53
2019-05-17T04:23:58.957Z,87.24
2019-05-17T04:24:58.908Z,86.63
2019-05-17T04:25:58.944Z,86.12
2019-05-17T04:26:58.889Z,86.53
2019-05-17T04:27:58.914Z,86.22
2019-05-17T04:28:58.860Z,86.12
2019-05-17T04:29:58.856Z,86.43
2019-05-17T04:30:58.839Z,86.43
2019-05-17T04:31:58.821Z,86.83
2019-05-17T04:32:58.819Z,87.24
2019-05-17T04:33:58.847Z,85.30
2019-05-17T04:34:58.798Z,85.50
2019-05-17T04:35:58.785Z,86.12
2019-05-17T04:36:58.772Z,86.43
2019-05-17T04:37:58.753Z,85.91
2019-05-17T04:38:58.806Z,85.91
2019-05-17T04:39:58.780Z,86.53
2019-05-17T04:40:58.722Z,86.32
2019-05-17T04:41:58.753Z,86.59
2019-05-17T04:42:58.698Z,85.88
2019-05-17T04:43:58.686Z,85.88
2019-05-17T04:44:58.679Z,86.08
2019-05-17T04:45:58.714Z,86.08
2019-05-17T04:46:58.662Z,86.22
2019-05-17T04:47:58.774Z,85.57
2019-05-17T04:48:58.630Z,85.26
2019-05-17T04:49:58.687Z,85.57
2019-05-17T04:50:58.652Z,84.95
2019-05-17T04:51:58.599Z,85.36
2019-05-17T04:52:58.588Z,85.97
2019-05-17T04:53:58.582Z,86.29
2019-05-17T04:54:58.606Z,85.88
2019-05-17T04:55:58.566Z,86.49
2019-05-17T04:56:58.541Z,85.77
2019-05-17T04:57:58.574Z,85.06
2019-05-17T04:58:58.627Z,85.36
2019-05-17T04:59:58.510Z,85.16
2019-05-17T05:00:58.501Z,85.47
2019-05-17T05:01:58.496Z,84.95
2019-05-17T05:03:06.239Z,85.36
2019-05-17T05:03:58.471Z,84.85
2019-05-17T05:04:58.461Z,85.61
2019-05-17T05:05:58.464Z,85.57
2019-05-17T05:06:58.441Z,86.38
2019-05-17T05:07:58.422Z,85.26
2019-05-17T05:08:58.464Z,85.67
2019-05-17T05:09:58.394Z,85.36
2019-05-17T05:10:58.396Z,85.10
2019-05-17T05:12:04.728Z,85.57
2019-05-17T05:12:59.413Z,85.88
2019-05-17T05:13:58.399Z,86.32
2019-05-17T05:14:58.341Z,86.38
2019-05-17T05:15:58.348Z,85.67
2019-05-17T05:16:58.332Z,86.29
2019-05-17T05:17:58.343Z,85.97
2019-05-17T05:18:58.303Z,86.38
2019-05-17T05:19:58.333Z,85.77
2019-05-17T05:20:58.283Z,85.36
2019-05-17T05:21:58.311Z,86.08
2019-05-17T05:22:58.261Z,86.29
2019-05-17T05:23:58.288Z,86.49
2019-05-17T05:24:58.253Z,86.29
2019-05-17T05:25:58.260Z,85.16
2019-05-17T05:26:58.215Z,86.18
2019-05-17T05:27:58.228Z,85.88
2019-05-17T05:28:58.243Z,86.49
2019-05-17T05:29:58.182Z,86.79
2019-05-17T05:30:58.182Z,86.08
2019-05-17T05:31:58.185Z,85.97
2019-05-17T05:32:58.141Z,86.18
2019-05-17T05:33:58.161Z,86.08
2019-05-17T05:34:58.134Z,85.47
2019-05-17T05:35:58.259Z,85.47
2019-05-17T05:36:58.124Z,85.57
2019-05-17T05:37:58.076Z,85.88
2019-05-17T05:38:58.078Z,86.08
2019-05-17T05:39:58.104Z,85.77
2019-05-17T05:40:58.156Z,84.95
2019-05-17T05:42:06.926Z,85.32
2019-05-17T05:42:59.027Z,84.61
2019-05-17T05:43:58.013Z,84.91
2019-05-17T05:44:58.081Z,84.61
2019-05-17T05:45:58.032Z,84.30
2019-05-17T05:46:57.986Z,84.30
2019-05-17T05:47:57.989Z,84.44
2019-05-17T05:48:57.953Z,84.81
2019-05-17T05:49:58.010Z,85.16
2019-05-17T05:50:57.974Z,85.53
2019-05-17T05:51:57.937Z,85.26
2019-05-17T05:52:57.909Z,86.38
2019-05-17T05:53:58.078Z,86.49
2019-05-17T05:54:57.993Z,86.38
2019-05-17T05:55:57.914Z,86.29
2019-05-17T05:56:57.874Z,86.49
2019-05-17T05:57:57.929Z,87.10
2019-05-17T05:58:57.838Z,86.59
2019-05-17T05:59:57.888Z,87.00
2019-05-17T06:00:57.851Z,87.00
2019-05-17T06:01:57.981Z,86.29
2019-05-17T06:02:57.823Z,86.69
2019-05-17T06:03:57.874Z,86.49
2019-05-17T06:04:57.783Z,86.44
2019-05-17T06:05:57.766Z,86.65
2019-05-17T06:06:57.763Z,87.06
2019-05-17T06:07:57.795Z,86.55
2019-05-17T06:08:59.091Z,86.55
2019-05-17T06:09:57.739Z,86.44
2019-05-17T06:10:57.733Z,85.83
2019-05-17T06:11:57.778Z,86.76
2019-05-17T06:12:57.759Z,87.00
2019-05-17T06:13:57.716Z,86.44
2019-05-17T06:14:57.713Z,86.96
2019-05-17T06:15:57.686Z,86.76
2019-05-17T06:16:57.755Z,86.76
2019-05-17T06:17:57.798Z,85.94
2019-05-17T06:18:57.661Z,85.83
2019-05-17T06:19:57.666Z,86.44
2019-05-17T06:20:57.607Z,86.41
2019-05-17T06:21:57.655Z,86.30
2019-05-17T06:22:57.583Z,85.94
2019-05-17T06:23:57.596Z,85.53
2019-05-17T06:24:57.595Z,85.83
2019-05-17T06:25:57.694Z,86.76
2019-05-17T06:26:57.601Z,86.96
2019-05-17T06:27:57.592Z,86.44
2019-05-17T06:28:57.517Z,87.06
2019-05-17T06:29:57.540Z,85.69
2019-05-17T06:30:57.536Z,84.88
2019-05-17T06:31:57.480Z,84.47
2019-05-17T06:32:58.061Z,84.88
2019-05-17T06:33:57.461Z,84.67
2019-05-17T06:34:57.541Z,85.18
2019-05-17T06:35:57.468Z,84.94
2019-05-17T06:36:57.416Z,85.04
2019-05-17T06:37:57.508Z,85.18
2019-05-17T06:38:57.481Z,84.47
2019-05-17T06:39:58.165Z,83.92
2019-05-17T06:40:57.374Z,83.81
2019-05-17T06:41:57.417Z,84.12
2019-05-17T06:42:57.395Z,84.06
2019-05-17T06:43:57.593Z,84.36
2019-05-17T06:44:57.539Z,84.12
2019-05-17T06:45:57.372Z,84.83
2019-05-17T06:46:57.392Z,84.63
2019-05-17T06:47:57.309Z,84.53
2019-05-17T06:48:57.318Z,84.77
2019-05-17T06:49:57.342Z,84.74
2019-05-17T06:50:57.330Z,85.14
2019-05-17T06:51:57.323Z,85.24
2019-05-17T06:52:57.242Z,85.04
2019-05-17T06:53:57.239Z,86.20
2019-05-17T06:54:57.229Z,85.18
2019-05-17T06:55:57.203Z,85.65
2019-05-17T06:56:57.262Z,86.20
2019-05-17T06:57:57.190Z,86.20
2019-05-17T06:58:57.208Z,86.20
2019-05-17T06:59:59.287Z,85.79
2019-05-17T07:00:57.161Z,86.41
2019-05-17T07:01:57.136Z,86.30
2019-05-17T07:03:00.551Z,86.82
2019-05-17T07:03:57.343Z,86.82
2019-05-17T07:04:57.101Z,86.71
2019-05-17T07:05:57.084Z,86.61
2019-05-17T07:06:57.198Z,87.84
2019-05-17T07:07:57.076Z,87.73
2019-05-17T07:08:57.046Z,87.63
2019-05-17T07:09:57.050Z,88.18
2019-05-17T07:10:59.583Z,87.84
2019-05-17T07:11:59.549Z,87.47
2019-05-17T07:12:59.602Z,87.37
2019-05-17T07:13:57.027Z,86.82
2019-05-17T07:14:58.446Z,86.82
2019-05-17T07:15:57.069Z,87.02
2019-05-17T07:16:59.472Z,86.85
2019-05-17T07:17:57.015Z,87.67
2019-05-17T07:18:56.999Z,87.26
2019-05-17T07:19:59.522Z,87.06
2019-05-17T07:20:56.961Z,86.91
2019-05-17T07:21:57.074Z,86.51
2019-05-17T07:22:56.894Z,86.71
2019-05-17T07:23:59.258Z,86.24
2019-05-17T07:24:56.930Z,86.24
2019-05-17T07:25:56.874Z,86.20
2019-05-17T07:26:59.101Z,85.83
2019-05-17T07:27:56.863Z,86.41
2019-05-17T07:28:59.129Z,85.73
2019-05-17T07:29:59.118Z,86.04
2019-05-17T07:30:59.828Z,85.59
2019-05-17T07:31:57.244Z,86.24
2019-05-17T07:32:57.321Z,85.38
2019-05-17T07:33:59.849Z,85.73
2019-05-17T07:34:59.827Z,86.00
2019-05-17T07:35:59.499Z,85.28
2019-05-17T07:36:56.929Z,85.08
2019-05-17T07:37:59.347Z,85.79
2019-05-17T07:38:56.874Z,86.00
2019-05-17T07:40:02.063Z,84.88
2019-05-17T07:40:59.544Z,84.57
2019-05-17T07:41:56.964Z,84.88
2019-05-17T07:43:09.780Z,85.89
2019-05-17T07:43:57.750Z,85.86
2019-05-17T07:44:56.680Z,86.10
2019-05-17T07:45:56.701Z,86.26
2019-05-17T07:46:56.655Z,85.35
2019-05-17T07:47:56.721Z,84.01
2019-05-17T07:48:56.657Z,85.04
2019-05-17T07:49:56.601Z,84.33
2019-05-17T07:50:59.002Z,84.53
2019-05-17T07:51:56.696Z,84.12
2019-05-17T07:53:00.500Z,84.59
2019-05-17T07:53:56.625Z,84.80
2019-05-17T07:54:56.543Z,84.49
2019-05-17T07:55:56.530Z,84.69
2019-05-17T07:56:56.511Z,84.80
2019-05-17T07:57:56.578Z,84.66
2019-05-17T07:58:56.497Z,84.34
2019-05-17T07:59:56.491Z,84.66
2019-05-17T08:00:56.487Z,85.27
2019-05-17T08:01:56.523Z,84.45
2019-05-17T08:02:56.441Z,84.45
2019-05-17T08:03:56.545Z,84.14
2019-05-17T08:04:56.808Z,84.66
2019-05-17T08:05:56.537Z,84.25
2019-05-17T08:06:56.435Z,82.82
2019-05-17T08:07:56.430Z,83.12
2019-05-17T08:08:56.397Z,84.25
2019-05-17T08:09:56.372Z,83.23
2019-05-17T08:10:56.409Z,84.04
2019-05-17T08:11:56.439Z,83.94
2019-05-17T08:12:56.415Z,83.94
2019-05-17T08:13:56.361Z,84.66
2019-05-17T08:14:56.329Z,84.55
2019-05-17T08:15:56.346Z,84.04
2019-05-17T08:16:56.320Z,84.49
2019-05-17T08:17:59.326Z,85.00
2019-05-17T08:18:57.296Z,85.10
2019-05-17T08:19:56.261Z,84.49
2019-05-17T08:20:56.268Z,84.66
2019-05-17T08:21:56.316Z,84.86
2019-05-17T08:22:56.237Z,85.27
2019-05-17T08:23:56.300Z,83.87
2019-05-17T08:24:56.190Z,85.06
2019-05-17T08:25:56.411Z,84.75
2019-05-17T08:26:56.219Z,84.66
2019-05-17T08:27:56.155Z,84.25
2019-05-17T08:28:56.179Z,83.63
2019-05-17T08:29:56.295Z,84.75
2019-05-17T08:30:56.147Z,84.25
2019-05-17T08:31:56.220Z,85.10
2019-05-17T08:32:56.230Z,83.84
2019-05-17T08:33:56.089Z,84.25
2019-05-17T08:34:56.237Z,83.73
2019-05-17T08:35:56.085Z,83.02
2019-05-17T08:36:56.080Z,84.00
2019-05-17T08:37:56.056Z,84.14
2019-05-17T08:38:56.035Z,83.84
2019-05-17T08:39:56.089Z,83.84
2019-05-17T08:40:56.006Z,83.23
2019-05-17T08:41:56.003Z,83.80
2019-05-17T08:42:56.000Z,83.80
2019-05-17T08:43:56.029Z,83.80
2019-05-17T08:44:57.505Z,84.20
2019-05-17T08:45:58.440Z,83.29
2019-05-17T08:46:56.007Z,83.90
2019-05-17T08:47:55.987Z,83.49
2019-05-17T08:48:55.918Z,83.90
2019-05-17T08:49:56.003Z,83.59
2019-05-17T08:50:56.016Z,84.31
2019-05-17T08:51:56.108Z,84.20
2019-05-17T08:52:55.897Z,83.65
2019-05-17T08:53:56.010Z,83.04
2019-05-17T08:54:55.892Z,82.03
2019-05-17T08:55:55.932Z,82.90
2019-05-17T08:56:55.928Z,82.29
2019-05-17T08:57:56.633Z,82.40
2019-05-17T08:58:56.143Z,81.27
2019-05-17T08:59:55.925Z,81.74
2019-05-17T09:00:55.797Z,82.15
2019-05-17T09:01:55.801Z,81.79
2019-05-17T09:02:55.936Z,83.62
2019-05-17T09:03:55.841Z,81.65
2019-05-17T09:04:56.552Z,83.07
2019-05-17T09:05:55.835Z,83.58
2019-05-17T09:06:55.867Z,81.71
2019-05-17T09:07:55.801Z,80.99
2019-05-17T09:08:55.745Z,82.32
2019-05-17T09:09:55.785Z,81.57
2019-05-17T09:10:55.690Z,81.26
2019-05-17T09:11:55.691Z,81.12
2019-05-17T09:12:55.821Z,80.31
2019-05-17T09:14:01.116Z,80.27
2019-05-17T09:14:56.640Z,79.32
2019-05-17T09:15:55.911Z,79.83
2019-05-17T09:16:56.123Z,79.79
2019-05-17T09:17:55.764Z,81.27
2019-05-17T09:18:55.621Z,78.94
2019-05-17T09:19:55.634Z,79.96
2019-05-17T09:20:55.689Z,78.80
2019-05-17T09:21:55.553Z,79.72
2019-05-17T09:22:55.544Z,76.64
2019-05-17T09:23:55.573Z,76.33
2019-05-17T09:24:55.545Z,77.34
2019-05-17T09:25:55.499Z,76.60
2019-05-17T09:26:55.560Z,75.32
2019-05-17T09:27:57.072Z,75.42
2019-05-17T09:28:55.494Z,77.34
2019-05-17T09:29:55.504Z,75.62
2019-05-17T09:30:55.441Z,78.46
2019-05-17T09:31:55.598Z,76.84
2019-05-17T09:32:55.459Z,76.54
2019-05-17T09:33:55.423Z,78.26
2019-05-17T09:34:55.397Z,76.90
2019-05-17T09:35:56.230Z,75.59
2019-05-17T09:36:55.377Z,76.64
2019-05-17T09:37:55.368Z,76.54
2019-05-17T09:38:55.367Z,76.09
2019-05-17T09:39:55.567Z,77.21
2019-05-17T09:40:55.433Z,74.88
2019-05-17T09:41:55.379Z,75.65
2019-05-17T09:42:55.338Z,76.77
2019-05-17T09:44:07.751Z,76.03
2019-05-17T09:44:56.407Z,74.77
2019-05-17T09:45:55.281Z,74.60
2019-05-17T09:46:55.285Z,75.52
2019-05-17T09:47:55.273Z,75.42
2019-05-17T09:48:55.288Z,75.21
2019-05-17T09:49:55.257Z,77.03
2019-05-17T09:50:55.310Z,74.84
2019-05-17T09:51:55.218Z,74.74
2019-05-17T09:52:55.219Z,77.28
2019-05-17T09:53:55.274Z,76.77
2019-05-17T09:54:55.223Z,75.76
2019-05-17T09:55:55.172Z,77.68
2019-05-17T09:56:55.156Z,76.56
2019-05-17T09:57:55.368Z,74.88
2019-05-17T09:58:55.200Z,74.88
2019-05-17T09:59:55.991Z,76.54
2019-05-17T10:00:55.104Z,75.42
2019-05-17T10:01:55.151Z,76.03
2019-05-17T10:02:55.470Z,75.32
2019-05-17T10:03:55.386Z,75.62
2019-05-17T10:04:55.078Z,76.23
2019-05-17T10:05:55.090Z,74.77
2019-05-17T10:06:55.040Z,75.73
2019-05-17T10:07:55.093Z,75.73
2019-05-17T10:08:55.023Z,75.22
2019-05-17T10:09:55.007Z,75.62
2019-05-17T10:11:05.918Z,77.45
2019-05-17T10:11:56.181Z,76.23
2019-05-17T10:12:54.973Z,75.42
2019-05-17T10:13:54.986Z,74.71
2019-05-17T10:14:54.981Z,76.54
2019-05-17T10:15:54.977Z,76.33
2019-05-17T10:16:55.380Z,76.43
2019-05-17T10:17:54.930Z,76.50
2019-05-17T10:18:54.932Z,77.21
2019-05-17T10:19:54.897Z,75.89
2019-05-17T10:20:54.911Z,76.70
2019-05-17T10:21:54.939Z,76.43
2019-05-17T10:22:54.903Z,76.09
2019-05-17T10:23:54.855Z,76.90
2019-05-17T10:24:54.871Z,76.54
2019-05-17T10:25:54.873Z,76.03
2019-05-17T10:26:54.875Z,77.48
2019-05-17T10:27:56.379Z,75.86
2019-05-17T10:28:54.818Z,76.27
2019-05-17T10:29:54.898Z,76.67
2019-05-17T10:30:54.789Z,77.04
2019-05-17T10:31:54.768Z,76.40
2019-05-17T10:32:54.843Z,75.79
2019-05-17T10:33:54.917Z,74.84
2019-05-17T10:34:54.790Z,74.51
2019-05-17T10:35:54.756Z,74.81
2019-05-17T10:36:54.764Z,75.79
2019-05-17T10:37:54.717Z,73.56
2019-05-17T10:38:54.732Z,72.78
2019-05-17T10:39:54.694Z,72.88
2019-05-17T10:40:54.695Z,73.39
2019-05-17T10:41:54.838Z,74.71
2019-05-17T10:42:54.647Z,74.87
2019-05-17T10:43:54.650Z,74.77
2019-05-17T10:44:54.972Z,73.09
2019-05-17T10:45:54.665Z,73.12
2019-05-17T10:46:54.610Z,73.63
2019-05-17T10:47:54.590Z,74.07
2019-05-17T10:48:54.569Z,73.86
2019-05-17T10:49:54.598Z,75.89
2019-05-17T10:50:54.565Z,74.37
2019-05-17T10:51:54.947Z,74.44
2019-05-17T10:52:54.599Z,74.04
2019-05-17T10:53:54.508Z,75.65
2019-05-17T10:54:54.541Z,75.42
2019-05-17T10:55:54.577Z,74.00
2019-05-17T10:56:54.549Z,72.58
2019-05-17T10:57:54.472Z,73.12
2019-05-17T10:58:54.508Z,73.22
2019-05-17T10:59:54.476Z,75.18
2019-05-17T11:00:54.450Z,74.77
2019-05-17T11:01:54.428Z,74.68
2019-05-17T11:02:54.475Z,75.45
2019-05-17T11:03:54.465Z,74.98
2019-05-17T11:04:54.450Z,74.88
2019-05-17T11:05:54.382Z,75.65
2019-05-17T11:06:54.415Z,75.04
2019-05-17T11:07:54.433Z,74.84
2019-05-17T11:08:54.399Z,75.35
2019-05-17T11:09:54.387Z,74.54
2019-05-17T11:10:54.685Z,74.24
2019-05-17T11:11:54.336Z,74.95
2019-05-17T11:12:54.384Z,75.82
2019-05-17T11:13:54.298Z,75.42
2019-05-17T11:15:09.692Z,76.32
2019-05-17T11:15:55.281Z,73.80
2019-05-17T11:16:54.323Z,73.39
2019-05-17T11:17:54.299Z,73.39
2019-05-17T11:18:54.271Z,74.20
2019-05-17T11:19:54.255Z,74.10
2019-05-17T11:20:54.257Z,73.80
2019-05-17T11:21:54.258Z,75.52
2019-05-17T11:22:54.255Z,74.57
2019-05-17T11:23:54.614Z,74.37
2019-05-17T11:24:54.190Z,74.63
2019-05-17T11:25:54.599Z,73.22
2019-05-17T11:26:54.194Z,72.08
2019-05-17T11:27:54.153Z,72.78
2019-05-17T11:28:54.150Z,71.37
2019-05-17T11:29:54.116Z,71.37
2019-05-17T11:30:54.160Z,70.86
2019-05-17T11:31:54.439Z,71.06
2019-05-17T11:32:54.164Z,70.86
2019-05-17T11:33:54.079Z,71.06
2019-05-17T11:34:54.068Z,70.66
2019-05-17T11:35:54.041Z,71.06
2019-05-17T11:36:54.059Z,70.86
2019-05-17T11:37:54.068Z,70.86
2019-05-17T11:38:54.022Z,71.06
2019-05-17T11:39:54.053Z,69.71
2019-05-17T11:40:54.056Z,69.28
2019-05-17T11:41:53.978Z,68.04
2019-05-17T11:42:54.068Z,69.24
2019-05-17T11:43:53.984Z,69.62
2019-05-17T11:44:53.951Z,68.14
2019-05-17T11:45:53.988Z,68.91
2019-05-17T11:46:53.944Z,68.18
2019-05-17T11:47:54.030Z,66.16
2019-05-17T11:48:54.030Z,65.02
2019-05-17T11:49:53.900Z,63.92
2019-05-17T11:50:55.241Z,63.99
2019-05-17T11:51:53.879Z,64.19
2019-05-17T11:52:53.959Z,64.13
2019-05-17T11:53:53.848Z,62.52
2019-05-17T11:54:53.882Z,62.59
2019-05-17T11:55:53.826Z,63.09
2019-05-17T11:56:53.830Z,62.29
2019-05-17T11:57:53.825Z,64.07
2019-05-17T11:58:53.833Z,62.93
2019-05-17T11:59:53.777Z,62.40
2019-05-17T12:00:53.802Z,62.30
2019-05-17T12:01:53.762Z,59.95
2019-05-17T12:02:53.753Z,61.88
2019-05-17T12:03:53.841Z,62.82
2019-05-17T12:04:53.786Z,62.12
2019-05-17T12:05:53.731Z,61.79
2019-05-17T12:06:53.855Z,63.82
2019-05-17T12:07:53.700Z,61.49
2019-05-17T12:08:53.734Z,61.69
2019-05-17T12:09:53.668Z,60.58
2019-05-17T12:10:53.785Z,61.35
2019-05-17T12:11:53.652Z,61.96
2019-05-17T12:12:53.674Z,59.92
2019-05-17T12:13:53.611Z,60.35
2019-05-17T12:14:53.663Z,60.28
2019-05-17T12:15:53.657Z,62.46
2019-05-17T12:16:53.595Z,60.08
2019-05-17T12:17:53.578Z,61.24
2019-05-17T12:18:53.622Z,62.55
2019-05-17T12:19:53.554Z,63.93
2019-05-17T12:20:55.093Z,61.91
2019-05-17T12:21:55.794Z,62.02
2019-05-17T12:22:53.561Z,62.24
2019-05-17T12:23:53.521Z,62.12
2019-05-17T12:24:53.566Z,61.54
2019-05-17T12:25:53.517Z,60.71
2019-05-17T12:26:53.483Z,62.19
2019-05-17T12:27:53.451Z,61.25
2019-05-17T12:28:53.500Z,59.25
2019-05-17T12:29:53.486Z,59.32
2019-05-17T12:30:53.427Z,59.29
2019-05-17T12:31:53.557Z,59.69
2019-05-17T12:32:53.449Z,57.26
2019-05-17T12:33:53.399Z,58.66
2019-05-17T12:34:53.480Z,58.13
2019-05-17T12:35:53.374Z,57.66
2019-05-17T12:36:53.364Z,58.09
2019-05-17T12:37:53.337Z,59.92
2019-05-17T12:38:53.410Z,60.22
2019-05-17T12:39:53.372Z,59.49
2019-05-17T12:40:53.325Z,57.68
2019-05-17T12:41:53.345Z,57.11
2019-05-17T12:42:53.342Z,58.31
2019-05-17T12:43:53.292Z,58.22
2019-05-17T12:44:53.308Z,59.79
2019-05-17T12:46:00.569Z,59.19
2019-05-17T12:46:54.327Z,58.09
2019-05-17T12:47:53.247Z,57.18
2019-05-17T12:48:53.286Z,58.39
2019-05-17T12:49:53.270Z,58.46
2019-05-17T12:50:53.262Z,56.76
2019-05-17T12:51:53.194Z,59.13